Pagina principale
METAR-TAF:

METAR-TAF

Aeroporti :

Aeroporto Internazionale di Khartum

Khartum, Sudan

latitudine: 15-36N, longitudine: 032-33E, altezza: 382 m

Osservazione

Il bollettino è stato emesso 31 minuti fa, alle 21:00 UTC
Vento 7 kt da nord/nord-ovest
Temperature 22°C
Umidità 21%
Pressione 1016 hPa
Visibilità 10 km o più
nessuna nube inferiore a 1500 m e nessun cumulonembo

METAR: HSSS 172100Z 34007KT CAVOK 22/M01 Q1016 NOSIG

Ora: 00:31 (21:31 UTC)

Previsione

Il bollettino è stato emesso 4 ore e 31 minuti fa, alle 17:00 UTC
Previsione valida dal 17 alle 18 UTC al 18 alle 24 UTC
Vento 8 kt da nord/nord-ovest
Visibilità 10 km o più
nessuna nube inferiore a 1500 m e nessun cumulonembo
Temporaneamente
dal 17 alle 18 UTC al 17 alle 21 UTC
Visibilità: 8000 m

TAF: HSSS 171700Z 1718/1824 34008KT CAVOK TEMPO 1718/1721 8000

Osservazioni e previsioni meteorologiche di più di 4000 aeroporti (messaggi METAR e TAF).

Le stazioni disponibili sono rappresentate dai dischi gialli e rossi sulla carta.

Puntare il mouse per vedere il nome della stazione.

Clicca sopra per visualizzare le osservazioni e previsioni meteorologiche.

Per cambiare la mappa : fare clic sui pulsanti verdi con una croce nera per ingrandire, il pulsante verde con un trattino per diminuire, o sulla freccia verde per le mappe adiacenti.


METAR-TAF: